Terminal Aerodrome Forecast
Issued by NWS Charleston, WV

Current Version | Previous Version | Graphics & Text | Print | Product List | Glossary On
Versions: 1 2 3 4 5 6 7 8 9 10 11 12 13 14 15 16 17 18 19 20 21 22 23 24 25 26 27 28 29
505
FTUS41 KRLX 201425 AAA
TAFEKN
TAF AMD
KEKN 201425Z 2014/2112 00000KT P6SM FEW250
      TEMPO 2014/2015 BKN002
     FM201700 26005KT P6SM SCT050
     FM210100 00000KT P6SM FEW250
     FM210600 00000KT 4SM BR FEW250
     FM210800 00000KT 1SM BR BKN001
     FM210900 00000KT 1/4SM FG VV001=

USA.gov is the U.S. government's official web portal to all federal, state and local government web resources and services.